Main page
METAR-TAF:

METAR-TAF

Airports :

John C. Tune Airport

Nashville, Tennessee, United States

latitude: 36-10-56N, longitude: 086-53-12W, elevation: 495 ft

Current weather observation

The report was made 17 minutes ago, at 10:55 UTC
Calm wind
Temperature 32°F
Humidity 80%
Pressure 30.22 in. Hg
Visibility: 10 miles
Scattered clouds at a height of 11000 ft

METAR: KJWN 231055Z AUTO 00000KT 10SM SCT110 00/M03 A3022 RMK A01

Time: 05:12 (11:12 UTC)


TAF: missing

Weather observations and forecasts of more than 4000 airports (METAR and TAF reports).

The available stations are represented by yellow and red dots on the map.

Hover mouse over dot to see the name of the station.

Then click to see weather observations and forecasts.

To change the map : click on the green buttons with a black cross to zoom in, on the green button with a dash to zoom out, or on the green arrows for adjacent maps.


METAR-TAF: